Time;durP1;ratioP1;P1;durP2;ratioP2;P2;SDS_P1;SDS_P2;PMS_P1;PMS_P2;Temp;Humidity;BMP_temperature;BMP_pressure;BME280_temperature;BME280_humidity;BME280_pressure;Samples;Min_cycle;Max_cycle;Signal;HPM_P1;HPM_P2
2021/01/03 00:00:50;;;;;;;22.57;10.77;;;;;;;4.97;81.59;101501.69;127815;1092;104715;-72
2021/01/03 00:03:20;;;;;;;22.63;9.93;;;;;;;4.96;81.19;101500.80;127768;1092;104430;-73
2021/01/03 00:05:50;;;;;;;23.17;10.30;;;;;;;4.98;81.22;101503.51;127824;1091;104206;-72
2021/01/03 00:08:20;;;;;;;24.07;10.87;;;;;;;5.00;81.33;101502.84;127728;1092;104339;-72
2021/01/03 00:10:50;;;;;;;24.80;9.83;;;;;;;5.01;81.46;101502.03;127644;1091;104215;-72
2021/01/03 00:13:20;;;;;;;23.23;9.70;;;;;;;5.02;81.10;101505.56;127793;1091;104205;-72
2021/01/03 00:15:50;;;;;;;24.63;9.93;;;;;;;5.04;81.27;101502.26;127771;1091;104309;-72
2021/01/03 00:18:20;;;;;;;26.83;11.17;;;;;;;5.09;81.49;101506.91;127820;1091;104202;-72
2021/01/03 00:20:51;;;;;;;22.50;9.77;;;;;;;5.12;81.51;101510.63;127817;1091;104234;-72
2021/01/03 00:23:21;;;;;;;21.43;9.23;;;;;;;5.19;81.80;101512.02;127806;1091;104410;-72
2021/01/03 00:25:51;;;;;;;22.13;9.47;;;;;;;5.24;81.71;101513.24;127811;1091;104336;-73
2021/01/03 00:28:21;;;;;;;22.17;8.03;;;;;;;5.30;81.78;101500.68;127779;1091;104212;-72
2021/01/03 00:30:51;;;;;;;21.10;8.10;;;;;;;5.37;81.90;101500.31;127810;1092;104205;-73
2021/01/03 00:33:21;;;;;;;25.00;8.40;;;;;;;5.43;82.13;101494.66;127800;1091;104340;-74
2021/01/03 00:35:51;;;;;;;20.80;7.63;;;;;;;5.49;82.03;101487.29;127838;1091;104237;-72
2021/01/03 00:38:21;;;;;;;19.07;7.73;;;;;;;5.54;81.91;101485.02;127816;1093;104413;-71
2021/01/03 00:40:52;;;;;;;19.87;7.63;;;;;;;5.56;82.09;101491.23;127781;1091;104289;-71
2021/01/03 00:43:22;;;;;;;20.30;8.23;;;;;;;5.58;82.04;101471.44;127832;1091;104218;-71
2021/01/03 00:45:52;;;;;;;22.63;8.50;;;;;;;5.61;82.05;101476.86;127803;1091;104238;-71
2021/01/03 00:48:22;;;;;;;21.30;7.77;;;;;;;5.63;82.10;101466.56;127801;1092;104205;-71
2021/01/03 00:50:53;;;;;;;14.17;5.30;;;;;;;5.67;82.60;101473.77;127821;1091;104205;-71
2021/01/03 00:53:23;;;;;;;20.33;7.67;;;;;;;5.68;82.28;101476.48;127764;1091;104299;-71
2021/01/03 00:55:53;;;;;;;14.93;5.60;;;;;;;5.70;82.31;101472.31;127787;1092;104214;-74
2021/01/03 00:58:23;;;;;;;20.10;7.17;;;;;;;5.73;82.26;101476.81;127788;1091;104213;-74
2021/01/03 01:00:53;;;;;;;17.73;7.23;;;;;;;5.73;82.53;101472.53;127805;1091;104205;-73
2021/01/03 01:03:23;;;;;;;17.33;7.17;;;;;;;5.75;82.74;101470.92;127695;1091;104300;-73
2021/01/03 01:05:53;;;;;;;18.07;7.53;;;;;;;5.79;82.51;101477.24;127665;1091;104209;-73
2021/01/03 01:08:23;;;;;;;16.70;7.03;;;;;;;5.84;82.60;101481.06;127815;1092;104340;-72
2021/01/03 01:10:53;;;;;;;19.20;7.30;;;;;;;5.88;82.62;101485.70;127804;1091;104242;-73
2021/01/03 01:13:23;;;;;;;17.07;6.23;;;;;;;5.92;82.39;101484.21;127834;1091;104215;-72
2021/01/03 01:15:53;;;;;;;17.53;6.97;;;;;;;5.92;82.63;101476.39;127810;1092;104551;-73
2021/01/03 01:18:23;;;;;;;16.03;6.33;;;;;;;5.96;82.52;101480.14;127740;1091;104337;-74
2021/01/03 01:20:53;;;;;;;18.77;7.47;;;;;;;5.99;82.49;101473.47;127806;1092;104202;-72
2021/01/03 01:23:23;;;;;;;17.00;6.73;;;;;;;6.01;82.68;101465.76;127795;1092;104251;-72
2021/01/03 01:25:52;;;;;;;18.53;6.57;;;;;;;6.04;82.60;101463.37;127806;1091;104205;-73
2021/01/03 01:28:22;;;;;;;15.53;6.53;;;;;;;6.06;82.60;101454.88;127796;1091;104339;-72
2021/01/03 01:30:52;;;;;;;15.43;6.77;;;;;;;6.09;82.87;101459.36;127777;1091;104203;-72
2021/01/03 01:33:22;;;;;;;14.50;5.93;;;;;;;6.10;82.68;101458.58;127822;1091;104205;-72
2021/01/03 01:35:52;;;;;;;15.37;6.23;;;;;;;6.15;82.79;101458.90;127818;1091;104285;-73
2021/01/03 01:38:22;;;;;;;14.80;5.93;;;;;;;6.15;82.58;101461.50;127821;1091;104327;-72
2021/01/03 01:40:53;;;;;;;16.27;6.27;;;;;;;6.14;82.67;101452.80;127822;1091;104311;-72
2021/01/03 01:43:24;;;;;;;12.00;4.77;;;;;;;6.15;82.85;101458.90;127759;1092;104228;-74
2021/01/03 01:45:54;;;;;;;11.20;5.00;;;;;;;6.15;82.73;101457.19;127823;1092;104231;-73
2021/01/03 01:48:31;;;;;;;14.63;5.93;;;;;;;6.16;82.86;101455.50;127817;1092;104297;-72
2021/01/03 01:51:05;;;;;;;11.40;5.40;;;;;;;6.15;82.76;101458.90;127820;1091;104215;-73
2021/01/03 01:53:43;;;;;;;13.83;5.53;;;;;;;6.15;82.95;101457.19;127811;1091;104773;-74
2021/01/03 01:56:21;;;;;;;11.57;5.60;;;;;;;6.15;83.08;101453.69;127776;1092;104311;-73
2021/01/03 01:58:57;;;;;;;12.63;4.90;;;;;;;6.16;82.97;101458.11;127816;1091;104224;-73
2021/01/03 02:01:46;;;;;;;12.23;4.77;;;;;;;6.19;82.93;101453.11;127793;1092;104205;-73
2021/01/03 02:04:24;;;;;;;10.70;5.00;;;;;;;6.20;83.20;101460.11;127812;1092;104214;-72
2021/01/03 02:07:01;;;;;;;11.83;4.90;;;;;;;6.21;83.10;101460.21;127830;1092;104398;-72
2021/01/03 02:09:44;;;;;;;7.73;3.17;;;;;;;6.23;83.40;101461.24;127799;1091;104699;-72
2021/01/03 02:12:24;;;;;;;11.47;5.50;;;;;;;6.24;83.08;101452.61;127608;1093;104212;-72
2021/01/03 02:14:55;;;;;;;12.50;5.17;;;;;;;6.28;82.85;101449.42;127827;1091;104215;-72
2021/01/03 02:17:25;;;;;;;9.63;4.60;;;;;;;6.34;83.00;101453.23;127818;1091;104209;-73
2021/01/03 02:19:57;;;;;;;10.20;4.53;;;;;;;6.36;83.14;101449.94;127871;1091;104290;-72
2021/01/03 02:22:35;;;;;;;9.33;4.50;;;;;;;6.40;83.04;101448.44;127840;1091;104226;-72
2021/01/03 02:25:08;;;;;;;12.20;4.85;;;;;;;6.43;83.45;101444.32;127872;1092;104337;-72
2021/01/03 02:27:47;;;;;;;11.10;4.97;;;;;;;6.44;83.02;101450.46;127901;1091;104320;-72
2021/01/03 02:30:20;;;;;;;11.37;4.50;;;;;;;6.46;83.22;101446.24;127877;1092;104209;-72
2021/01/03 02:33:02;;;;;;;10.67;5.03;;;;;;;6.46;83.42;101448.85;127895;1091;104333;-72
2021/01/03 02:35:33;;;;;;;9.27;4.50;;;;;;;6.46;83.37;101441.92;127807;1092;104213;-72
2021/01/03 02:38:05;;;;;;;13.10;5.23;;;;;;;6.45;83.26;101444.42;127843;1092;104218;-72
2021/01/03 02:40:35;;;;;;;11.47;5.23;;;;;;;6.47;83.09;101441.13;127775;1092;104221;-72
2021/01/03 02:43:05;;;;;;;11.97;4.93;;;;;;;6.52;83.29;101430.13;127810;1092;104340;-72
2021/01/03 02:45:35;;;;;;;11.93;4.87;;;;;;;6.54;83.34;101433.72;127803;1092;104318;-72
2021/01/03 02:48:09;;;;;;;11.53;5.33;;;;;;;6.54;83.62;101431.11;127804;1092;104336;-72
2021/01/03 02:50:39;;;;;;;12.63;5.70;;;;;;;6.55;83.37;101425.11;127785;1092;104336;-73
2021/01/03 02:53:09;;;;;;;9.23;4.53;;;;;;;6.56;83.71;101424.28;127662;1091;104205;-73
2021/01/03 02:55:39;;;;;;;12.10;5.33;;;;;;;6.58;83.59;101417.48;127751;1092;104214;-72
2021/01/03 02:58:09;;;;;;;10.90;5.60;;;;;;;6.60;83.52;101429.80;127785;1092;104205;-74
2021/01/03 03:00:40;;;;;;;12.73;5.37;;;;;;;6.62;83.81;101425.62;127737;1091;104231;-73
2021/01/03 03:03:10;;;;;;;12.80;5.57;;;;;;;6.68;83.40;101421.60;127786;1091;104337;-74
2021/01/03 03:05:40;;;;;;;11.70;5.03;;;;;;;6.71;83.35;101424.41;127801;1091;104225;-73
2021/01/03 03:08:10;;;;;;;15.70;5.77;;;;;;;6.75;83.65;101427.33;127810;1091;104263;-73
2021/01/03 03:10:40;;;;;;;12.50;5.23;;;;;;;6.79;83.26;101428.42;127784;1091;104394;-74
2021/01/03 03:13:10;;;;;;;14.10;5.67;;;;;;;6.79;83.78;101425.81;127797;1091;104210;-74
2021/01/03 03:15:40;;;;;;;15.27;5.63;;;;;;;6.79;83.66;101418.91;127788;1092;104222;-73
2021/01/03 03:18:10;;;;;;;13.20;5.60;;;;;;;6.80;83.37;101430.23;127771;1092;104205;-73
2021/01/03 03:20:41;;;;;;;14.60;5.97;;;;;;;6.80;83.32;101420.70;127787;1092;104206;-73
2021/01/03 03:23:11;;;;;;;13.10;5.40;;;;;;;6.83;83.92;101422.61;127818;1091;104276;-75
2021/01/03 03:25:41;;;;;;;15.03;5.83;;;;;;;6.82;83.82;101418.19;127636;1091;104809;-73
2021/01/03 03:28:11;;;;;;;16.50;6.77;;;;;;;6.83;83.52;101417.39;127732;1092;104366;-74
2021/01/03 03:30:41;;;;;;;17.07;6.73;;;;;;;6.84;83.51;101422.72;127749;1092;104791;-73
2021/01/03 03:33:11;;;;;;;16.57;6.33;;;;;;;6.86;83.74;101429.71;127798;1092;104205;-72
2021/01/03 03:35:41;;;;;;;15.77;6.57;;;;;;;6.88;83.43;101425.52;127790;1091;104685;-73
2021/01/03 03:38:11;;;;;;;13.00;5.83;;;;;;;6.90;84.10;101431.73;127786;1091;104237;-72
2021/01/03 03:40:42;;;;;;;16.43;6.90;;;;;;;6.91;84.00;101429.23;127800;1092;104292;-72
2021/01/03 03:43:11;;;;;;;16.43;6.93;;;;;;;6.94;83.83;101433.75;127764;1091;104337;-72
2021/01/03 03:45:41;;;;;;;19.63;6.90;;;;;;;6.98;83.80;101430.52;127783;1092;104307;-72
2021/01/03 03:48:12;;;;;;;15.20;6.10;;;;;;;7.00;83.75;101431.55;127802;1091;104353;-73
2021/01/03 03:50:42;;;;;;;16.73;7.07;;;;;;;7.01;83.42;101429.03;127734;1092;104708;-74
2021/01/03 03:53:12;;;;;;;17.03;7.73;;;;;;;7.07;83.83;101431.12;127709;1093;104205;-74
2021/01/03 03:55:42;;;;;;;17.83;8.23;;;;;;;7.09;83.86;101434.75;127725;1092;104289;-74
2021/01/03 03:58:12;;;;;;;18.43;6.67;;;;;;;7.10;83.70;101426.09;127821;1091;104288;-73
2021/01/03 04:00:42;;;;;;;17.07;7.17;;;;;;;7.12;83.64;101434.02;127807;1092;104734;-72
2021/01/03 04:03:12;;;;;;;20.43;8.20;;;;;;;7.12;83.91;101434.95;127810;1091;104211;-72
2021/01/03 04:05:41;;;;;;;16.10;7.07;;;;;;;7.12;84.16;101424.51;127789;1091;104208;-72
2021/01/03 04:08:11;;;;;;;19.37;7.93;;;;;;;7.15;83.86;101435.15;127768;1091;104218;-73
2021/01/03 04:10:42;;;;;;;18.93;7.97;;;;;;;7.16;83.56;101429.10;127791;1091;104324;-72
2021/01/03 04:13:13;;;;;;;20.50;8.37;;;;;;;7.19;84.19;101424.08;127809;1092;104654;-72
2021/01/03 04:15:43;;;;;;;19.00;7.50;;;;;;;7.21;83.73;101424.17;127807;1092;104449;-72
2021/01/03 04:18:13;;;;;;;21.43;8.80;;;;;;;7.22;83.84;101425.10;127753;1091;104203;-73
2021/01/03 04:20:44;;;;;;;22.17;9.80;;;;;;;7.25;83.93;101425.30;127713;1092;104288;-75
2021/01/03 04:23:14;;;;;;;22.33;9.30;;;;;;;7.28;83.57;101429.00;127713;1092;104254;-73
2021/01/03 04:25:44;;;;;;;21.40;9.37;;;;;;;7.30;83.80;101422.16;127757;1091;104212;-73
2021/01/03 04:28:14;;;;;;;20.63;8.73;;;;;;;7.31;83.72;101412.64;127739;1091;104445;-73
2021/01/03 04:30:45;;;;;;;18.97;8.70;;;;;;;7.30;84.11;101410.81;127786;1091;104215;-74
2021/01/03 04:33:15;;;;;;;20.23;8.87;;;;;;;7.30;84.03;101413.43;127700;1091;104247;-73
2021/01/03 04:35:44;;;;;;;21.73;9.33;;;;;;;7.31;83.90;101412.64;127776;1092;104214;-71
2021/01/03 04:38:14;;;;;;;18.93;8.73;;;;;;;7.32;83.57;101406.59;127812;1093;104240;-72
2021/01/03 04:40:47;;;;;;;23.90;9.23;;;;;;;7.33;83.63;101408.41;127760;1092;104218;-72
2021/01/03 04:43:20;;;;;;;21.60;9.30;;;;;;;7.33;83.66;101416.23;127796;1091;104407;-72
2021/01/03 04:46:00;;;;;;;21.42;8.73;;;;;;;7.35;83.78;101423.37;127767;1092;104225;-72
2021/01/03 04:48:32;;;;;;;21.43;10.20;;;;;;;7.39;83.93;101421.84;127796;1091;104259;-72
2021/01/03 04:51:21;;;;;;;22.53;8.63;;;;;;;7.42;83.91;101419.43;127738;1092;104206;-72
2021/01/03 04:53:57;;;;;;;20.13;9.17;;;;;;;7.45;83.58;101418.70;127748;1091;104453;-73
2021/01/03 04:56:45;;;;;;;25.40;9.03;;;;;;;7.47;84.22;101414.50;127797;1091;104203;-72
2021/01/03 04:59:29;;;;;;;21.20;9.20;;;;;;;7.50;84.27;101414.69;127828;1091;104212;-73
2021/01/03 05:02:37;;;;;;;20.83;8.97;;;;;;;7.51;84.18;101409.56;127843;1091;104398;-74
2021/01/03 05:05:27;;;;;;;21.40;9.27;;;;;;;7.52;84.16;101411.34;127785;1091;104211;-72
2021/01/03 05:08:11;;;;;;;24.93;9.23;;;;;;;7.53;84.08;101414.88;127775;1091;104292;-72
2021/01/03 05:10:41;;;;;;;26.10;10.18;;;;;;;7.55;84.07;101413.26;127768;1092;104328;-74
2021/01/03 05:13:29;;;;;;;22.37;9.07;;;;;;;7.55;83.58;101415.87;127781;1092;104211;-73
2021/01/03 05:15:59;;;;;;;19.85;8.00;;;;;;;7.54;83.80;101401.92;127791;1092;104241;-72
2021/01/03 05:18:29;;;;;;;21.77;8.90;;;;;;;7.53;83.75;101407.05;127777;1091;104250;-73
2021/01/03 05:21:06;;;;;;;21.07;9.10;;;;;;;7.51;83.64;101393.89;127763;1093;104212;-74
2021/01/03 05:23:38;;;;;;;19.03;8.60;;;;;;;7.49;84.13;101403.32;127616;1091;104250;-73
2021/01/03 05:26:25;;;;;;;18.80;7.87;;;;;;;7.50;84.09;101415.58;127743;1091;104212;-73
2021/01/03 05:28:57;;;;;;;23.43;9.00;;;;;;;7.48;84.19;101419.81;127710;1091;104690;-73
2021/01/03 05:31:29;;;;;;;16.33;7.03;;;;;;;7.49;83.64;101418.09;127805;1091;104381;-74
2021/01/03 05:34:01;;;;;;;19.30;8.00;;;;;;;7.47;83.97;101417.11;127728;1091;104259;-73
2021/01/03 05:36:39;;;;;;;17.53;7.23;;;;;;;7.47;83.79;101418.00;127774;1091;104212;-73
2021/01/03 05:39:31;;;;;;;17.30;6.57;;;;;;;7.46;83.85;101421.41;127578;1091;104222;-72
2021/01/03 05:42:30;;;;;;;17.53;7.53;;;;;;;7.46;83.73;101418.80;127780;1091;104346;-73
2021/01/03 05:45:07;;;;;;;14.93;6.17;;;;;;;7.42;83.52;101414.20;127743;1092;104237;-73
2021/01/03 05:47:39;;;;;;;14.70;7.13;;;;;;;7.41;84.24;101412.39;127633;1092;104352;-74
2021/01/03 05:50:16;;;;;;;14.73;7.20;;;;;;;7.39;83.72;101408.79;127724;1092;104318;-73
2021/01/03 05:52:54;;;;;;;13.83;6.13;;;;;;;7.37;83.56;101413.91;127801;1091;104203;-73
2021/01/03 05:55:26;;;;;;;12.70;6.17;;;;;;;7.36;83.62;101404.27;127772;1091;104286;-73
2021/01/03 05:58:17;;;;;;;20.77;7.17;;;;;;;7.35;84.25;101404.17;127707;1091;104387;-75
2021/01/03 06:00:49;;;;;;;12.40;6.00;;;;;;;7.33;84.28;101395.34;127624;1091;104236;-74
2021/01/03 06:03:27;;;;;;;15.00;6.67;;;;;;;7.29;83.88;101388.12;127775;1092;104225;-73
2021/01/03 06:06:01;;;;;;;17.30;6.93;;;;;;;7.29;84.00;101396.88;127794;1091;104338;-73
2021/01/03 06:08:34;;;;;;;12.90;5.97;;;;;;;7.29;83.67;101404.70;127797;1092;104205;-73
2021/01/03 06:11:14;;;;;;;16.83;6.53;;;;;;;7.29;83.63;101395.95;127653;1091;104340;-72
2021/01/03 06:13:50;;;;;;;15.17;6.67;;;;;;;7.26;83.86;101396.68;127773;1091;104289;-73
2021/01/03 06:16:28;;;;;;;17.00;6.97;;;;;;;7.25;83.82;101401.80;127734;1091;104232;-73
2021/01/03 06:19:06;;;;;;;19.13;7.50;;;;;;;7.23;84.07;101401.70;127775;1091;104208;-74
2021/01/03 06:21:39;;;;;;;14.40;6.40;;;;;;;7.20;84.22;101397.18;127819;1091;104379;-73
2021/01/03 06:24:25;;;;;;;12.57;5.73;;;;;;;7.13;83.48;101399.30;127788;1092;104323;-74
2021/01/03 06:26:59;;;;;;;16.80;6.40;;;;;;;7.08;83.90;101395.50;127766;1091;104205;-73
2021/01/03 06:29:37;;;;;;;14.83;6.10;;;;;;;7.01;83.40;101405.55;127818;1091;104241;-72
2021/01/03 06:32:31;;;;;;;12.27;5.97;;;;;;;6.94;83.84;101397.22;127829;1091;104222;-73
2021/01/03 06:35:05;;;;;;;10.00;4.97;;;;;;;6.88;83.84;101396.83;127809;1091;105369;-73
2021/01/03 06:37:43;;;;;;;12.17;5.33;;;;;;;6.81;83.91;101403.36;127639;1091;104216;-75
2021/01/03 06:40:23;;;;;;;12.40;5.50;;;;;;;6.78;83.81;101419.70;127525;1091;104291;-74
2021/01/03 06:43:19;;;;;;;12.73;6.13;;;;;;;6.73;83.61;101418.50;127510;1091;104237;-76
2021/01/03 06:46:09;;;;;;;15.00;6.33;;;;;;;6.71;83.67;101427.91;127568;1092;104243;-73
2021/01/03 06:49:02;;;;;;;12.27;4.97;;;;;;;6.75;83.77;101442.09;127645;1091;104247;-73
2021/01/03 06:52:00;;;;;;;12.37;5.67;;;;;;;6.75;83.78;101434.26;127792;1092;104308;-73
2021/01/03 06:54:57;;;;;;;12.63;5.70;;;;;;;6.76;83.67;101442.19;127778;1092;104302;-74
2021/01/03 06:57:53;;;;;;;15.30;6.00;;;;;;;6.80;84.07;101451.11;127430;1091;104483;-73
2021/01/03 07:00:26;;;;;;;11.53;5.20;;;;;;;6.82;83.97;101453.03;127798;1091;104292;-73
2021/01/03 07:03:04;;;;;;;11.15;4.97;;;;;;;6.83;83.85;101448.70;127772;1091;104686;-73
2021/01/03 07:05:35;;;;;;;12.43;4.80;;;;;;;6.84;83.63;101453.13;127786;1092;104317;-73
2021/01/03 07:08:10;;;;;;;11.73;5.43;;;;;;;6.85;83.67;101449.69;127558;1091;104869;-74
2021/01/03 07:10:42;;;;;;;12.17;5.03;;;;;;;6.87;83.88;101442.86;127720;1092;104213;-73
2021/01/03 07:13:37;;;;;;;14.40;5.27;;;;;;;6.91;84.02;101446.59;127771;1092;104212;-73
2021/01/03 07:16:32;;;;;;;12.95;5.45;;;;;;;6.96;83.74;101440.86;127834;1091;104209;-74
2021/01/03 07:19:06;;;;;;;11.60;5.07;;;;;;;7.02;83.69;101441.25;127761;1092;104289;-74
2021/01/03 07:21:44;;;;;;;15.30;6.00;;;;;;;7.04;83.59;101441.36;127718;1091;104247;-74
2021/01/03 07:24:31;;;;;;;17.47;5.87;;;;;;;7.04;83.49;101454.41;127787;1091;104285;-73
2021/01/03 07:27:31;;;;;;;14.43;6.00;;;;;;;7.09;83.96;101455.63;127801;1091;104703;-73
2021/01/03 07:30:28;;;;;;;12.70;5.80;;;;;;;7.11;83.78;101456.63;127807;1091;104208;-74
2021/01/03 07:33:20;;;;;;;11.93;5.50;;;;;;;7.16;83.87;101457.81;127820;1091;104349;-72
2021/01/03 07:35:50;;;;;;;13.93;6.00;;;;;;;7.16;83.70;101460.42;127764;1091;104208;-73
2021/01/03 07:38:28;;;;;;;14.17;6.20;;;;;;;7.17;83.78;101458.73;127802;1092;104232;-73
2021/01/03 07:41:05;;;;;;;15.17;6.60;;;;;;;7.17;83.86;101453.52;127729;1091;104337;-72
2021/01/03 07:44:00;;;;;;;15.43;5.90;;;;;;;7.15;83.83;101445.59;127487;1091;104225;-74
2021/01/03 07:46:46;;;;;;;16.10;6.63;;;;;;;7.12;83.78;101449.69;127583;1092;104346;-73
2021/01/03 07:49:36;;;;;;;12.47;6.03;;;;;;;7.14;83.64;101462.05;127457;1093;104384;-73
2021/01/03 07:52:34;;;;;;;13.00;6.10;;;;;;;7.23;83.74;101460.82;127394;1091;104311;-75
2021/01/03 07:55:07;;;;;;;16.87;6.43;;;;;;;7.26;83.63;101458.41;127128;1093;104210;-75
2021/01/03 07:57:37;;;;;;;14.60;5.97;;;;;;;7.30;83.85;101457.81;128949;1092;101939;-75
2021/01/03 08:00:09;;;;;;;14.57;5.90;;;;;;;7.30;83.38;101449.98;128019;1092;104770;-73
2021/01/03 08:02:40;;;;;;;14.67;6.10;;;;;;;7.30;83.28;101452.59;127780;1091;104205;-73
2021/01/03 08:05:13;;;;;;;15.33;5.60;;;;;;;7.32;84.00;101461.41;127660;1091;104212;-74
2021/01/03 08:07:43;;;;;;;13.20;5.67;;;;;;;7.33;83.95;101460.63;127864;1091;104750;-73
2021/01/03 08:10:14;;;;;;;14.40;6.50;;;;;;;7.33;83.66;101444.95;127794;1092;104211;-73
2021/01/03 08:12:49;;;;;;;11.63;5.60;;;;;;;7.37;83.72;101445.25;127815;1092;104206;-73
2021/01/03 08:15:28;;;;;;;14.53;6.17;;;;;;;7.39;83.85;101445.34;127770;1091;104205;-74
2021/01/03 08:18:04;;;;;;;9.97;4.90;;;;;;;7.41;83.52;101446.34;127804;1092;104213;-73
2021/01/03 08:20:34;;;;;;;11.50;5.07;;;;;;;7.45;83.69;101445.73;127785;1092;104211;-74
2021/01/03 08:23:23;;;;;;;13.73;5.50;;;;;;;7.51;84.00;101447.81;127821;1091;104224;-74
2021/01/03 08:26:05;;;;;;;12.40;5.50;;;;;;;7.60;83.99;101445.78;127809;1091;104417;-74
2021/01/03 08:28:39;;;;;;;14.37;5.07;;;;;;;7.70;84.10;101445.56;127740;1091;104333;-73
2021/01/03 08:31:13;;;;;;;11.63;4.83;;;;;;;7.81;83.26;101438.39;127720;1091;104232;-73
2021/01/03 08:33:44;;;;;;;9.38;4.35;;;;;;;7.90;83.43;101438.96;127753;1093;104334;-74
2021/01/03 08:36:23;;;;;;;10.27;4.17;;;;;;;7.94;83.89;101436.53;127823;1091;104206;-73
2021/01/03 08:38:55;;;;;;;8.90;4.47;;;;;;;8.00;83.61;101423.84;127817;1092;104275;-72
2021/01/03 08:41:34;;;;;;;12.73;5.10;;;;;;;8.07;83.92;101429.54;127752;1092;104267;-72
2021/01/03 08:44:08;;;;;;;11.53;4.80;;;;;;;8.16;83.28;101428.28;127824;1092;104215;-72
2021/01/03 08:46:41;;;;;;;10.50;4.60;;;;;;;8.20;83.70;101419.83;127805;1092;104208;-73
2021/01/03 08:49:13;;;;;;;11.13;4.47;;;;;;;8.27;82.99;101416.74;127807;1091;104227;-74
2021/01/03 08:51:43;;;;;;;8.03;4.40;;;;;;;8.30;83.23;101413.42;127792;1091;104222;-74
2021/01/03 08:54:13;;;;;;;9.13;4.53;;;;;;;8.36;83.65;101411.17;127759;1092;104276;-73
2021/01/03 08:56:51;;;;;;;9.57;4.33;;;;;;;8.44;82.87;101410.83;127792;1092;104218;-73
2021/01/03 08:59:29;;;;;;;10.47;4.57;;;;;;;8.50;83.51;101409.41;127759;1091;104230;-74
2021/01/03 09:02:02;;;;;;;9.70;4.60;;;;;;;8.56;82.78;101402.80;127806;1091;104221;-73
2021/01/03 09:04:32;;;;;;;7.23;4.10;;;;;;;8.62;83.05;101404.89;127823;1091;104990;-74
2021/01/03 09:07:07;;;;;;;13.63;5.00;;;;;;;8.71;83.50;101394.03;127730;1092;104345;-73
2021/01/03 09:09:44;;;;;;;8.90;4.27;;;;;;;8.82;83.58;101387.72;127809;1091;104283;-73
2021/01/03 09:12:32;;;;;;;9.30;4.20;;;;;;;8.88;83.18;101388.07;127779;1092;104216;-73
2021/01/03 09:15:09;;;;;;;10.70;3.97;;;;;;;8.93;82.54;101386.61;127809;1091;104250;-75
2021/01/03 09:17:41;;;;;;;9.33;3.73;;;;;;;8.98;82.44;101381.63;127766;1092;104375;-73
2021/01/03 09:20:35;;;;;;;9.30;3.40;;;;;;;9.06;82.46;101376.83;127746;1092;104212;-74
2021/01/03 09:23:13;;;;;;;11.87;4.13;;;;;;;9.11;82.39;101367.50;127790;1093;104212;-74
2021/01/03 09:25:50;;;;;;;11.10;4.10;;;;;;;9.22;82.17;101368.98;127751;1091;104292;-74
2021/01/03 09:28:26;;;;;;;6.63;3.30;;;;;;;9.32;82.58;101360.83;127800;1091;104205;-73
2021/01/03 09:31:17;;;;;;;9.37;3.47;;;;;;;9.46;82.26;101364.19;127824;1091;104392;-73
2021/01/03 09:33:57;;;;;;;10.00;3.60;;;;;;;9.57;82.15;101353.37;127772;1091;104487;-74
2021/01/03 09:36:51;;;;;;;9.30;3.73;;;;;;;9.71;81.83;101347.16;127825;1091;104208;-75
2021/01/03 09:39:46;;;;;;;9.13;3.50;;;;;;;9.77;82.17;101343.94;127662;1092;104222;-77
2021/01/03 09:42:40;;;;;;;16.07;4.20;;;;;;;9.88;82.20;101329.70;127770;1091;104254;-75
2021/01/03 09:45:28;;;;;;;10.13;3.97;;;;;;;9.92;81.69;101326.39;127806;1091;104337;-75
2021/01/03 09:47:59;;;;;;;10.17;3.53;;;;;;;9.97;81.85;101327.55;127735;1091;104421;-74
2021/01/03 09:50:42;;;;;;;10.03;3.87;;;;;;;10.02;81.88;101320.81;127787;1091;104205;-74
2021/01/03 09:53:29;;;;;;;12.33;4.20;;;;;;;10.08;81.14;101317.58;127809;1092;104663;-74
2021/01/03 09:56:08;;;;;;;8.57;3.47;;;;;;;10.04;81.17;101316.53;127815;1092;104276;-73
2021/01/03 09:58:41;;;;;;;12.20;4.60;;;;;;;9.99;81.42;101319.77;127809;1091;104682;-74
2021/01/03 10:01:26;;;;;;;11.70;3.57;;;;;;;9.97;81.80;101327.55;127767;1091;104280;-73
2021/01/03 10:03:57;;;;;;;12.33;4.00;;;;;;;10.02;82.15;101312.95;127795;1091;104286;-73
2021/01/03 10:06:33;;;;;;;11.90;4.10;;;;;;;10.10;81.61;101312.41;127810;1091;104209;-74
2021/01/03 10:09:15;;;;;;;10.23;4.07;;;;;;;10.13;81.82;101310.87;127796;1091;104213;-75
2021/01/03 10:11:46;;;;;;;10.40;3.97;;;;;;;10.24;81.59;101304.43;127816;1092;104221;-74
2021/01/03 10:14:32;;;;;;;12.10;3.80;;;;;;;10.31;81.62;101303.00;127781;1091;104311;-74
2021/01/03 10:17:16;;;;;;;10.17;3.60;;;;;;;10.39;81.40;101296.47;127803;1091;104260;-75
2021/01/03 10:19:46;;;;;;;11.30;3.40;;;;;;;10.39;81.33;101299.09;127791;1092;104225;-75
2021/01/03 10:22:34;;;;;;;6.17;3.20;;;;;;;10.42;81.04;101283.50;127825;1091;104290;-74
2021/01/03 10:25:13;;;;;;;10.47;3.70;;;;;;;10.39;80.95;101278.10;127730;1092;104403;-74
2021/01/03 10:28:03;;;;;;;9.97;3.20;;;;;;;10.34;81.25;101276.06;127716;1092;104469;-75
2021/01/03 10:30:33;;;;;;;13.70;3.90;;;;;;;10.31;81.65;101274.14;127560;1091;104216;-75
2021/01/03 10:33:03;;;;;;;9.40;3.57;;;;;;;10.22;81.11;101256.25;127784;1091;104209;-73
2021/01/03 10:35:34;;;;;;;6.73;3.17;;;;;;;10.17;81.60;101268.22;127799;1092;104208;-74
2021/01/03 10:38:05;;;;;;;12.83;3.77;;;;;;;10.11;80.76;101257.42;127764;1091;104369;-75
2021/01/03 10:40:36;;;;;;;15.60;3.50;;;;;;;10.05;80.42;101257.11;127722;1091;104510;-74
2021/01/03 10:43:06;;;;;;;13.80;3.57;;;;;;;10.06;80.32;101251.95;127673;1091;104413;-74
2021/01/03 10:45:36;;;;;;;10.07;3.30;;;;;;;10.07;80.75;101243.27;127753;1092;104339;-73
2021/01/03 10:48:08;;;;;;;12.63;3.50;;;;;;;10.12;80.57;101250.47;127822;1091;104218;-74
2021/01/03 10:50:38;;;;;;;9.57;3.50;;;;;;;10.15;80.26;101237.52;127852;1092;104308;-73
2021/01/03 10:53:09;;;;;;;11.07;3.67;;;;;;;10.18;80.63;101242.91;127556;1091;104295;-76
2021/01/03 10:55:39;;;;;;;11.80;3.43;;;;;;;10.22;80.72;101239.59;127752;1091;104221;-73
2021/01/03 10:58:09;;;;;;;10.63;3.50;;;;;;;10.32;80.50;101240.96;127729;1091;104337;-73
2021/01/03 11:00:39;;;;;;;12.87;3.50;;;;;;;10.34;80.41;101240.22;127710;1091;104221;-77
2021/01/03 11:03:10;;;;;;;11.77;3.37;;;;;;;10.37;80.33;101240.37;127777;1091;104333;-75
2021/01/03 11:05:47;;;;;;;10.73;3.27;;;;;;;10.40;80.61;101248.39;127728;1092;104356;-73
2021/01/03 11:08:17;;;;;;;13.67;3.90;;;;;;;10.42;80.14;101235.34;127796;1091;104218;-74
2021/01/03 11:10:49;;;;;;;14.77;3.47;;;;;;;10.47;80.25;101238.19;127808;1092;104344;-74
2021/01/03 11:13:20;;;;;;;8.53;3.23;;;;;;;10.51;80.03;101233.16;127743;1092;104772;-74
2021/01/03 11:15:51;;;;;;;10.07;3.30;;;;;;;10.47;80.15;101227.70;127803;1091;104277;-74
2021/01/03 11:18:21;;;;;;;12.17;3.70;;;;;;;10.37;79.94;101237.75;127728;1091;104209;-75
2021/01/03 11:20:52;;;;;;;11.83;3.93;;;;;;;10.30;80.23;101237.34;127594;1091;104216;-77
2021/01/03 11:23:23;;;;;;;10.93;4.07;;;;;;;10.23;80.58;101236.16;127712;1092;104238;-75
2021/01/03 11:25:55;;;;;;;13.87;3.90;;;;;;;10.16;80.68;101232.34;127685;1091;104414;-74
2021/01/03 11:28:25;;;;;;;12.30;3.80;;;;;;;10.07;80.23;101232.78;127669;1091;104282;-75
2021/01/03 11:30:55;;;;;;;10.07;3.60;;;;;;;10.01;80.54;101228.97;127705;1092;104218;-75
2021/01/03 11:33:25;;;;;;;12.50;3.80;;;;;;;9.97;80.52;101219.14;127759;1092;104312;-76
2021/01/03 11:35:55;;;;;;;15.40;3.83;;;;;;;9.96;80.46;101225.22;127712;1091;104205;-74
2021/01/03 11:38:25;;;;;;;14.67;3.47;;;;;;;9.89;80.48;101216.13;127821;1091;104234;-74
2021/01/03 11:40:55;;;;;;;15.13;4.43;;;;;;;9.84;80.75;101215.02;127829;1092;104713;-75
2021/01/03 11:43:25;;;;;;;12.37;4.30;;;;;;;9.82;80.21;101214.05;127771;1091;104340;-72
2021/01/03 11:45:58;;;;;;;8.43;3.57;;;;;;;9.83;80.50;101205.34;127817;1093;104667;-72